createdAt,value
2022-11-29T00:00:47.560Z,4.78
2022-11-29T00:01:43.015Z,4.79
2022-11-29T00:02:38.848Z,4.80
2022-11-29T00:03:34.070Z,4.80
2022-11-29T00:04:29.152Z,4.78
2022-11-29T00:05:24.890Z,4.79
2022-11-29T00:06:20.109Z,4.80
2022-11-29T00:07:15.893Z,4.81
2022-11-29T00:08:11.046Z,4.80
2022-11-29T00:09:06.518Z,4.76
2022-11-29T00:10:02.104Z,4.73
2022-11-29T00:10:57.329Z,4.74
2022-11-29T00:11:52.494Z,4.74
2022-11-29T00:12:48.933Z,4.75
2022-11-29T00:13:44.133Z,4.74
2022-11-29T00:14:39.855Z,4.73
2022-11-29T00:15:35.024Z,4.73
2022-11-29T00:16:30.289Z,4.71
2022-11-29T00:17:25.950Z,4.69
2022-11-29T00:18:21.261Z,4.70
2022-11-29T00:19:17.105Z,4.71
2022-11-29T00:20:12.310Z,4.69
2022-11-29T00:21:07.644Z,4.69
2022-11-29T00:22:03.389Z,4.67
2022-11-29T00:22:58.549Z,4.67
2022-11-29T00:23:53.976Z,4.64
2022-11-29T00:24:50.013Z,4.63
2022-11-29T00:25:45.210Z,4.62
2022-11-29T00:26:40.978Z,4.62
2022-11-29T00:27:36.142Z,4.64
2022-11-29T00:28:31.586Z,4.65
2022-11-29T00:29:27.439Z,4.63
2022-11-29T00:30:22.610Z,4.64
2022-11-29T00:31:17.826Z,4.69
2022-11-29T00:32:12.972Z,4.70
2022-11-29T00:33:09.011Z,4.70
2022-11-29T00:34:04.053Z,4.71
2022-11-29T00:35:00.662Z,4.71
2022-11-29T00:35:55.597Z,4.72
2022-11-29T00:36:50.924Z,4.74
2022-11-29T00:37:46.689Z,4.76
2022-11-29T00:38:41.990Z,4.76
2022-11-29T00:39:37.290Z,4.78
2022-11-29T00:40:33.055Z,4.81
2022-11-29T00:41:28.218Z,4.85
2022-11-29T00:42:24.149Z,4.86
2022-11-29T00:43:19.292Z,4.87
2022-11-29T00:44:19.889Z,4.88
2022-11-29T00:45:11.393Z,4.87
2022-11-29T00:46:05.673Z,4.86
2022-11-29T00:47:00.865Z,4.88
2022-11-29T00:47:57.124Z,4.86
2022-11-29T00:48:52.254Z,4.87
2022-11-29T00:49:47.451Z,4.90
2022-11-29T00:50:42.625Z,4.89
2022-11-29T00:51:38.102Z,4.89
2022-11-29T00:52:33.147Z,4.88
2022-11-29T00:53:29.156Z,4.86
2022-11-29T00:54:24.212Z,4.86
2022-11-29T00:55:19.554Z,4.87
2022-11-29T00:56:14.756Z,4.87
2022-11-29T00:57:11.157Z,4.85
2022-11-29T00:58:06.287Z,4.87
2022-11-29T00:59:01.511Z,4.89
2022-11-29T01:00:00.845Z,4.92
2022-11-29T01:00:56.280Z,4.95
2022-11-29T01:01:51.344Z,4.99
2022-11-29T01:02:46.705Z,5.03
2022-11-29T01:03:41.717Z,5.06
2022-11-29T01:04:36.855Z,5.07
2022-11-29T01:05:31.905Z,5.10
2022-11-29T01:06:26.979Z,5.13
2022-11-29T01:07:22.082Z,5.16
2022-11-29T01:08:17.117Z,5.18
2022-11-29T01:09:12.312Z,5.19
2022-11-29T01:10:07.347Z,5.23
2022-11-29T01:11:02.421Z,5.24
2022-11-29T01:11:57.476Z,5.26
2022-11-29T01:12:52.535Z,5.27
2022-11-29T01:13:47.670Z,5.28
2022-11-29T01:14:43.136Z,5.30
2022-11-29T01:15:37.904Z,5.31
2022-11-29T01:16:33.048Z,5.29
2022-11-29T01:17:27.975Z,5.29
2022-11-29T01:18:23.024Z,5.28
2022-11-29T01:19:18.052Z,5.28
2022-11-29T01:20:13.084Z,5.26
2022-11-29T01:21:08.084Z,5.27
2022-11-29T01:22:03.179Z,5.28
2022-11-29T01:22:58.213Z,5.26
2022-11-29T01:23:53.262Z,5.27
2022-11-29T01:24:48.268Z,5.30
2022-11-29T01:25:43.991Z,5.28
2022-11-29T01:26:39.038Z,5.25
2022-11-29T01:27:34.059Z,5.26
2022-11-29T01:28:29.091Z,5.30
2022-11-29T01:29:24.146Z,5.32
2022-11-29T01:30:19.158Z,5.34
2022-11-29T01:31:14.279Z,5.36
2022-11-29T01:32:09.259Z,5.38
2022-11-29T01:33:04.318Z,5.37
2022-11-29T01:33:59.323Z,5.37
2022-11-29T01:34:54.366Z,5.36
2022-11-29T01:35:49.416Z,5.35
2022-11-29T01:36:44.449Z,5.32
2022-11-29T01:37:39.503Z,5.28
2022-11-29T01:38:34.544Z,5.29
2022-11-29T01:39:29.721Z,5.27
2022-11-29T01:40:24.628Z,5.28
2022-11-29T01:41:19.633Z,5.29
2022-11-29T01:42:16.862Z,5.29
2022-11-29T01:43:11.989Z,5.29
2022-11-29T01:44:07.311Z,5.31
2022-11-29T01:45:02.482Z,5.33
2022-11-29T01:45:57.975Z,5.36
2022-11-29T01:46:53.091Z,5.38
2022-11-29T01:47:48.292Z,5.40
2022-11-29T01:48:43.463Z,5.40
2022-11-29T01:49:38.767Z,5.38
2022-11-29T01:50:33.793Z,5.37
2022-11-29T01:51:29.077Z,5.36
2022-11-29T01:52:24.249Z,5.37
2022-11-29T01:53:19.407Z,5.36
2022-11-29T01:54:14.570Z,5.34
2022-11-29T01:55:09.625Z,5.33
2022-11-29T01:56:04.684Z,5.34
2022-11-29T01:56:59.755Z,5.36
2022-11-29T01:57:57.667Z,5.36
2022-11-29T01:58:52.945Z,5.34
2022-11-29T01:59:48.138Z,5.31
2022-11-29T02:00:43.331Z,5.31
2022-11-29T02:01:38.544Z,5.29
2022-11-29T02:02:34.454Z,5.28
2022-11-29T02:03:29.522Z,5.28
2022-11-29T02:04:24.724Z,5.30
2022-11-29T02:05:20.491Z,5.32
2022-11-29T02:06:15.684Z,5.33
2022-11-29T02:07:11.535Z,5.35
2022-11-29T02:08:06.601Z,5.34
2022-11-29T02:09:01.782Z,5.33
2022-11-29T02:09:57.594Z,5.33
2022-11-29T02:10:52.759Z,5.32
2022-11-29T02:11:48.191Z,5.33
2022-11-29T02:12:44.202Z,5.34
2022-11-29T02:13:39.508Z,5.35
2022-11-29T02:14:35.280Z,5.35
2022-11-29T02:15:30.501Z,5.34
2022-11-29T02:16:25.811Z,5.30
2022-11-29T02:17:21.584Z,5.28
2022-11-29T02:18:16.755Z,5.28
2022-11-29T02:19:12.659Z,5.30
2022-11-29T02:20:07.837Z,5.31
2022-11-29T02:21:03.166Z,5.31
2022-11-29T02:21:58.797Z,5.33
2022-11-29T02:22:53.971Z,5.34
2022-11-29T02:23:49.137Z,5.34
2022-11-29T02:24:45.846Z,5.34
2022-11-29T02:25:40.873Z,5.33
2022-11-29T02:26:36.601Z,5.35
2022-11-29T02:27:31.738Z,5.37
2022-11-29T02:28:26.964Z,5.38
2022-11-29T02:29:22.702Z,5.38
2022-11-29T02:30:17.911Z,5.39
2022-11-29T02:31:13.677Z,5.39
2022-11-29T02:32:08.841Z,5.38
2022-11-29T02:33:04.160Z,5.38
2022-11-29T02:34:00.039Z,5.35
2022-11-29T02:34:55.250Z,5.36
2022-11-29T02:35:50.423Z,5.36
2022-11-29T02:36:46.709Z,5.36
2022-11-29T02:37:42.038Z,5.35
2022-11-29T02:38:37.749Z,5.34
2022-11-29T02:39:32.928Z,5.33
2022-11-29T02:40:28.139Z,5.30
2022-11-29T02:41:23.896Z,5.29
2022-11-29T02:42:19.078Z,5.31
2022-11-29T02:43:15.078Z,5.32
2022-11-29T02:44:10.110Z,5.32
2022-11-29T02:45:05.564Z,5.33
2022-11-29T02:46:01.368Z,5.34
2022-11-29T02:46:56.557Z,5.36
2022-11-29T02:47:51.818Z,5.35
2022-11-29T02:48:48.302Z,5.34
2022-11-29T02:49:43.476Z,5.33
2022-11-29T02:50:39.352Z,5.32
2022-11-29T02:51:34.506Z,5.32
2022-11-29T02:52:29.963Z,5.28
2022-11-29T02:53:25.583Z,5.26
2022-11-29T02:54:20.953Z,5.28
2022-11-29T02:55:16.692Z,5.29
2022-11-29T02:56:11.870Z,5.29
2022-11-29T02:57:07.180Z,5.29
2022-11-29T02:58:02.977Z,5.29
2022-11-29T02:58:58.193Z,5.32
2022-11-29T02:59:53.360Z,5.30
2022-11-29T03:00:49.755Z,5.29
2022-11-29T03:01:45.129Z,5.28
2022-11-29T03:02:40.299Z,5.30
2022-11-29T03:03:35.376Z,5.29
2022-11-29T03:04:30.426Z,5.30
2022-11-29T03:05:25.454Z,5.31
2022-11-29T03:06:20.518Z,5.28
2022-11-29T03:07:15.661Z,5.27
2022-11-29T03:08:10.720Z,5.28
2022-11-29T03:09:05.765Z,5.26
2022-11-29T03:10:00.809Z,5.26
2022-11-29T03:10:55.895Z,5.27
2022-11-29T03:11:50.922Z,5.24
2022-11-29T03:12:45.978Z,5.23
2022-11-29T03:13:41.072Z,5.24
2022-11-29T03:14:36.134Z,5.23
2022-11-29T03:15:31.395Z,5.24
2022-11-29T03:16:29.309Z,5.25
2022-11-29T03:17:24.335Z,5.25
2022-11-29T03:18:19.599Z,5.24
2022-11-29T03:19:14.611Z,5.24
2022-11-29T03:20:09.693Z,5.26
2022-11-29T03:21:04.727Z,5.28
2022-11-29T03:21:59.759Z,5.27
2022-11-29T03:22:54.815Z,5.24
2022-11-29T03:23:49.911Z,5.20
2022-11-29T03:24:45.205Z,5.20
2022-11-29T03:25:40.070Z,5.20
2022-11-29T03:26:35.118Z,5.19
2022-11-29T03:27:30.536Z,5.18
2022-11-29T03:28:25.813Z,5.21
2022-11-29T03:29:20.899Z,5.20
2022-11-29T03:30:15.928Z,5.23
2022-11-29T03:31:11.119Z,5.25
2022-11-29T03:32:06.021Z,5.27
2022-11-29T03:33:01.116Z,5.26
2022-11-29T03:33:59.824Z,5.27
2022-11-29T03:34:57.440Z,5.29
2022-11-29T03:35:49.914Z,5.29
2022-11-29T03:36:44.983Z,5.29
2022-11-29T03:37:40.053Z,5.31
2022-11-29T03:38:35.224Z,5.30
2022-11-29T03:39:30.279Z,5.31
2022-11-29T03:40:25.311Z,5.31
2022-11-29T03:41:20.369Z,5.32
2022-11-29T03:42:15.407Z,5.34
2022-11-29T03:43:10.442Z,5.35
2022-11-29T03:44:05.543Z,5.35
2022-11-29T03:45:00.566Z,5.37
2022-11-29T03:45:55.631Z,5.39
2022-11-29T03:46:50.636Z,5.39
2022-11-29T03:47:45.988Z,5.36
2022-11-29T03:48:40.740Z,5.34
2022-11-29T03:49:35.795Z,5.36
2022-11-29T03:50:30.858Z,5.37
2022-11-29T03:51:25.920Z,5.38
2022-11-29T03:52:20.932Z,5.39
2022-11-29T03:53:16.064Z,5.40
2022-11-29T03:54:11.104Z,5.39
2022-11-29T03:55:06.180Z,5.41
2022-11-29T03:56:01.211Z,5.42
2022-11-29T03:56:56.286Z,5.44
2022-11-29T03:57:51.324Z,5.46
2022-11-29T03:58:46.806Z,5.49
2022-11-29T03:59:41.981Z,5.53
2022-11-29T04:00:37.201Z,5.54
2022-11-29T04:01:32.968Z,5.54
2022-11-29T04:02:28.266Z,5.55
2022-11-29T04:03:24.125Z,5.57
2022-11-29T04:04:19.190Z,5.57
2022-11-29T04:05:14.367Z,5.57
2022-11-29T04:06:10.255Z,5.57
2022-11-29T04:07:05.435Z,5.59
2022-11-29T04:08:00.757Z,5.59
2022-11-29T04:08:57.110Z,5.59
2022-11-29T04:09:52.320Z,5.59
2022-11-29T04:10:48.072Z,5.58
2022-11-29T04:11:43.222Z,5.58
2022-11-29T04:12:38.657Z,5.57
2022-11-29T04:13:34.430Z,5.58
2022-11-29T04:14:29.613Z,5.61
2022-11-29T04:15:25.506Z,5.62
2022-11-29T04:16:20.695Z,5.61
2022-11-29T04:17:16.044Z,5.60
2022-11-29T04:18:11.655Z,5.60
2022-11-29T04:19:07.022Z,5.61
2022-11-29T04:20:02.204Z,5.59
2022-11-29T04:20:58.733Z,5.56
2022-11-29T04:21:53.924Z,5.54
2022-11-29T04:22:49.804Z,5.51
2022-11-29T04:23:44.930Z,5.51
2022-11-29T04:24:40.179Z,5.50
2022-11-29T04:25:35.920Z,5.49
2022-11-29T04:26:35.038Z,5.50
2022-11-29T04:27:27.082Z,5.49
2022-11-29T04:28:22.143Z,5.48
2022-11-29T04:29:17.352Z,5.48
2022-11-29T04:30:13.147Z,5.49
2022-11-29T04:31:08.348Z,5.52
2022-11-29T04:32:03.641Z,5.53
2022-11-29T04:32:59.909Z,5.56
2022-11-29T04:33:55.238Z,5.61
2022-11-29T04:34:51.028Z,5.62
2022-11-29T04:35:46.197Z,5.63
2022-11-29T04:36:41.506Z,5.63
2022-11-29T04:37:37.551Z,5.63
2022-11-29T04:38:32.697Z,5.62
2022-11-29T04:39:27.917Z,5.62
2022-11-29T04:40:23.686Z,5.63
2022-11-29T04:41:18.893Z,5.66
2022-11-29T04:42:14.060Z,5.67
2022-11-29T04:43:10.613Z,5.66
2022-11-29T04:44:05.858Z,5.64
2022-11-29T04:45:01.612Z,5.64
2022-11-29T04:45:56.838Z,5.66
2022-11-29T04:46:52.000Z,5.66
2022-11-29T04:47:47.720Z,5.66
2022-11-29T04:48:42.968Z,5.65
2022-11-29T04:49:38.681Z,5.64
2022-11-29T04:50:33.863Z,5.65
2022-11-29T04:51:29.170Z,5.65
2022-11-29T04:52:24.489Z,5.64
2022-11-29T04:53:19.663Z,5.63
2022-11-29T04:54:14.707Z,5.63
2022-11-29T04:55:09.719Z,5.62
2022-11-29T04:56:04.819Z,5.60
2022-11-29T04:57:03.787Z,5.59
2022-11-29T04:57:59.083Z,5.58
2022-11-29T04:58:54.336Z,5.57
2022-11-29T04:59:49.676Z,5.57
2022-11-29T05:00:45.974Z,5.54
2022-11-29T05:01:41.369Z,5.55
2022-11-29T05:02:36.474Z,5.54
2022-11-29T05:03:35.697Z,5.54
2022-11-29T05:04:30.765Z,5.54
2022-11-29T05:05:25.961Z,5.55
2022-11-29T05:06:21.141Z,5.54
2022-11-29T05:07:16.186Z,5.52
2022-11-29T05:08:11.243Z,5.49
2022-11-29T05:09:06.306Z,5.49
2022-11-29T05:10:01.349Z,5.49
2022-11-29T05:10:56.542Z,5.47
2022-11-29T05:11:51.723Z,5.48
2022-11-29T05:12:46.804Z,5.50
2022-11-29T05:13:41.889Z,5.52
2022-11-29T05:14:36.912Z,5.52
2022-11-29T05:15:32.030Z,5.54
2022-11-29T05:16:27.220Z,5.53
2022-11-29T05:17:22.462Z,5.55
2022-11-29T05:18:17.526Z,5.58
2022-11-29T05:19:12.543Z,5.60
2022-11-29T05:20:07.606Z,5.59
2022-11-29T05:21:02.674Z,5.59
2022-11-29T05:21:57.710Z,5.59
2022-11-29T05:22:52.790Z,5.57
2022-11-29T05:23:47.841Z,5.55
2022-11-29T05:24:43.067Z,5.56
2022-11-29T05:25:37.959Z,5.56
2022-11-29T05:26:33.110Z,5.54
2022-11-29T05:27:28.005Z,5.54
2022-11-29T05:28:23.045Z,5.55
2022-11-29T05:29:18.759Z,5.56
2022-11-29T05:30:13.832Z,5.58
2022-11-29T05:31:08.894Z,5.61
2022-11-29T05:32:03.952Z,5.61
2022-11-29T05:32:58.992Z,5.63
2022-11-29T05:33:54.024Z,5.65
2022-11-29T05:34:49.230Z,5.66
2022-11-29T05:35:44.095Z,5.65
2022-11-29T05:36:39.155Z,5.63
2022-11-29T05:37:34.225Z,5.63
2022-11-29T05:38:29.273Z,5.64
2022-11-29T05:39:24.371Z,5.63
2022-11-29T05:40:19.380Z,5.62
2022-11-29T05:41:14.640Z,5.61
2022-11-29T05:42:09.559Z,5.61
2022-11-29T05:43:04.679Z,5.63
2022-11-29T05:44:01.205Z,5.65
2022-11-29T05:44:56.257Z,5.64
2022-11-29T05:45:51.339Z,5.61
2022-11-29T05:46:46.495Z,5.58
2022-11-29T05:47:41.462Z,5.57
2022-11-29T05:48:36.532Z,5.56
2022-11-29T05:49:31.578Z,5.56
2022-11-29T05:50:26.686Z,5.55
2022-11-29T05:51:21.803Z,5.56
2022-11-29T05:52:16.754Z,5.57
2022-11-29T05:53:11.833Z,5.55
2022-11-29T05:54:06.951Z,5.54
2022-11-29T05:55:02.435Z,5.54
2022-11-29T05:55:57.601Z,5.54
2022-11-29T05:56:52.844Z,5.52
2022-11-29T05:57:48.598Z,5.52
2022-11-29T05:58:43.807Z,5.53
2022-11-29T05:59:39.558Z,5.54
2022-11-29T06:00:34.754Z,5.53
2022-11-29T06:01:30.187Z,5.51
2022-11-29T06:02:26.114Z,5.52
2022-11-29T06:03:21.289Z,5.55
2022-11-29T06:04:16.438Z,5.57
2022-11-29T06:05:12.932Z,5.58
2022-11-29T06:06:08.135Z,5.60
2022-11-29T06:07:03.905Z,5.61
2022-11-29T06:07:59.199Z,5.62
2022-11-29T06:08:54.414Z,5.62
2022-11-29T06:09:50.239Z,5.63
2022-11-29T06:10:45.455Z,5.64
2022-11-29T06:11:41.345Z,5.66
2022-11-29T06:12:36.433Z,5.67
2022-11-29T06:13:31.649Z,5.69
2022-11-29T06:14:27.441Z,5.70
2022-11-29T06:15:22.669Z,5.69
2022-11-29T06:16:18.062Z,5.71
2022-11-29T06:17:14.128Z,5.76
2022-11-29T06:18:09.464Z,5.77
2022-11-29T06:19:05.240Z,5.76
2022-11-29T06:20:00.565Z,5.77
2022-11-29T06:20:55.912Z,5.77
2022-11-29T06:21:51.585Z,5.77
2022-11-29T06:22:46.802Z,5.79
2022-11-29T06:23:42.599Z,5.81
2022-11-29T06:24:37.784Z,5.81
2022-11-29T06:25:33.164Z,5.82
2022-11-29T06:26:28.250Z,5.84
2022-11-29T06:27:24.839Z,5.83
2022-11-29T06:28:20.065Z,5.83
2022-11-29T06:29:15.880Z,5.84
2022-11-29T06:30:11.116Z,5.85
2022-11-29T06:31:06.453Z,5.87
2022-11-29T06:32:02.121Z,5.86
2022-11-29T06:32:57.422Z,5.87
2022-11-29T06:33:53.244Z,5.88
2022-11-29T06:34:48.679Z,5.87
2022-11-29T06:35:43.873Z,5.87
2022-11-29T06:36:39.737Z,5.86
2022-11-29T06:37:34.985Z,5.86
2022-11-29T06:38:30.235Z,5.85
2022-11-29T06:39:26.600Z,5.84
2022-11-29T06:40:21.900Z,5.82
2022-11-29T06:41:17.173Z,5.83
2022-11-29T06:42:12.455Z,5.83
2022-11-29T06:43:10.001Z,5.83
2022-11-29T06:44:05.256Z,5.83
2022-11-29T06:45:00.751Z,5.85
2022-11-29T06:45:55.870Z,5.87
2022-11-29T06:46:52.454Z,5.86
2022-11-29T06:47:47.784Z,5.88
2022-11-29T06:48:43.078Z,5.91
2022-11-29T06:49:38.863Z,5.90
2022-11-29T06:50:34.156Z,5.92
2022-11-29T06:51:29.485Z,5.92
2022-11-29T06:52:24.796Z,5.94
2022-11-29T06:53:20.135Z,5.93
2022-11-29T06:54:15.575Z,5.95
2022-11-29T06:55:11.748Z,5.95
2022-11-29T06:56:07.054Z,5.96
2022-11-29T06:57:02.729Z,5.94
2022-11-29T06:58:01.356Z,5.94
2022-11-29T06:58:56.739Z,5.93
2022-11-29T06:59:52.074Z,5.95
2022-11-29T07:00:47.594Z,5.96
2022-11-29T07:01:42.603Z,5.95
2022-11-29T07:02:37.634Z,5.93
2022-11-29T07:03:32.735Z,5.93
2022-11-29T07:04:27.853Z,5.93
2022-11-29T07:05:22.847Z,5.94
2022-11-29T07:06:18.013Z,5.94
2022-11-29T07:07:12.963Z,5.96
2022-11-29T07:08:08.083Z,5.98
2022-11-29T07:09:03.046Z,5.98
2022-11-29T07:09:58.190Z,6.00
2022-11-29T07:10:53.314Z,6.00
2022-11-29T07:11:48.389Z,6.01
2022-11-29T07:12:43.487Z,6.03
2022-11-29T07:13:38.568Z,6.04
2022-11-29T07:14:33.679Z,6.07
2022-11-29T07:15:29.048Z,6.07
2022-11-29T07:16:24.566Z,6.08
2022-11-29T07:17:19.786Z,6.10
2022-11-29T07:18:15.136Z,6.11
2022-11-29T07:19:10.486Z,6.10
2022-11-29T07:20:05.834Z,6.11
2022-11-29T07:21:01.231Z,6.12
2022-11-29T07:21:56.709Z,6.11
2022-11-29T07:22:51.963Z,6.11
2022-11-29T07:23:47.320Z,6.11
2022-11-29T07:24:42.840Z,6.13
2022-11-29T07:25:38.072Z,6.13
2022-11-29T07:26:33.475Z,6.13
2022-11-29T07:27:28.872Z,6.14
2022-11-29T07:28:24.232Z,6.12
2022-11-29T07:29:19.691Z,6.12
2022-11-29T07:30:16.045Z,6.10
2022-11-29T07:31:11.488Z,6.12
2022-11-29T07:32:08.130Z,6.11
2022-11-29T07:33:03.504Z,6.14
2022-11-29T07:33:58.959Z,6.16
2022-11-29T07:34:54.470Z,6.17
2022-11-29T07:35:49.788Z,6.15
2022-11-29T07:36:45.169Z,6.15
2022-11-29T07:37:40.580Z,6.15
2022-11-29T07:38:35.960Z,6.14
2022-11-29T07:39:31.339Z,6.15
2022-11-29T07:40:26.803Z,6.15
2022-11-29T07:41:22.216Z,6.15
2022-11-29T07:42:17.619Z,6.15
2022-11-29T07:43:13.050Z,6.15
2022-11-29T07:44:08.424Z,6.14
2022-11-29T07:45:04.007Z,6.13
2022-11-29T07:45:59.298Z,6.14
2022-11-29T07:46:54.689Z,6.15
2022-11-29T07:47:50.645Z,6.15
2022-11-29T07:48:46.077Z,6.16
2022-11-29T07:49:41.636Z,6.18
2022-11-29T07:50:37.104Z,6.19
2022-11-29T07:51:32.529Z,6.20
2022-11-29T07:52:27.943Z,6.23
2022-11-29T07:53:23.357Z,6.24
2022-11-29T07:54:18.772Z,6.24
2022-11-29T07:55:18.446Z,6.25
2022-11-29T07:56:09.639Z,6.25
2022-11-29T07:57:09.095Z,6.25
2022-11-29T07:58:04.508Z,6.23
2022-11-29T07:59:00.070Z,6.25
2022-11-29T07:59:55.347Z,6.27
2022-11-29T08:00:50.839Z,6.28
2022-11-29T08:01:46.199Z,6.28
2022-11-29T08:02:41.556Z,6.26
2022-11-29T08:03:36.884Z,6.27
2022-11-29T08:04:32.357Z,6.26
2022-11-29T08:05:27.751Z,6.27
2022-11-29T08:06:23.276Z,6.29
2022-11-29T08:07:18.724Z,6.30
2022-11-29T08:08:14.005Z,6.32
2022-11-29T08:09:09.435Z,6.33
2022-11-29T08:10:04.834Z,6.34
2022-11-29T08:10:59.960Z,6.33
2022-11-29T08:11:54.961Z,6.35
2022-11-29T08:12:49.977Z,6.35
2022-11-29T08:13:45.081Z,6.36
2022-11-29T08:14:40.099Z,6.37
2022-11-29T08:15:35.199Z,6.39
2022-11-29T08:16:30.306Z,6.41
2022-11-29T08:17:25.308Z,6.40
2022-11-29T08:18:20.431Z,6.42
2022-11-29T08:19:15.449Z,6.41
2022-11-29T08:20:11.661Z,6.39
2022-11-29T08:21:06.790Z,6.35
2022-11-29T08:22:01.807Z,6.35
2022-11-29T08:22:56.779Z,6.38
2022-11-29T08:23:52.870Z,6.38
2022-11-29T08:24:48.495Z,6.40
2022-11-29T08:25:43.716Z,6.41
2022-11-29T08:26:39.159Z,6.42
2022-11-29T08:27:34.581Z,6.43
2022-11-29T08:28:29.958Z,6.46
2022-11-29T08:29:24.996Z,6.47
2022-11-29T08:30:19.959Z,6.46
2022-11-29T08:31:15.014Z,6.47
2022-11-29T08:32:10.038Z,6.49
2022-11-29T08:33:05.065Z,6.48
2022-11-29T08:34:00.099Z,6.49
2022-11-29T08:34:55.193Z,6.51
2022-11-29T08:35:50.281Z,6.51
2022-11-29T08:36:45.594Z,6.52
2022-11-29T08:37:40.493Z,6.52
2022-11-29T08:38:35.578Z,6.53
2022-11-29T08:39:30.606Z,6.55
2022-11-29T08:40:25.681Z,6.55
2022-11-29T08:41:20.898Z,6.56
2022-11-29T08:42:15.968Z,6.57
2022-11-29T08:43:10.961Z,6.58
2022-11-29T08:44:06.013Z,6.57
2022-11-29T08:45:01.039Z,6.60
2022-11-29T08:45:56.214Z,6.63
2022-11-29T08:46:51.511Z,6.64
2022-11-29T08:47:46.963Z,6.65
2022-11-29T08:48:42.605Z,6.65
2022-11-29T08:49:41.718Z,6.66
2022-11-29T08:50:37.169Z,6.63
2022-11-29T08:51:32.708Z,6.64
2022-11-29T08:52:27.966Z,6.63
2022-11-29T08:53:23.488Z,6.62
2022-11-29T08:54:18.918Z,6.63
2022-11-29T08:55:14.362Z,6.63
2022-11-29T08:56:41.614Z,6.65
2022-11-29T08:57:37.835Z,6.61
2022-11-29T08:58:02.085Z,6.60
2022-11-29T08:58:56.654Z,6.62
2022-11-29T08:59:52.137Z,6.63
2022-11-29T09:00:47.670Z,6.65
2022-11-29T09:01:43.031Z,6.67
2022-11-29T09:02:38.716Z,6.68
2022-11-29T09:03:33.761Z,6.66
2022-11-29T09:04:28.832Z,6.66
2022-11-29T09:05:23.886Z,6.67
2022-11-29T09:06:18.901Z,6.67
2022-11-29T09:07:13.999Z,6.66
2022-11-29T09:08:09.078Z,6.67
2022-11-29T09:09:04.145Z,6.69
2022-11-29T09:09:59.195Z,6.69
2022-11-29T09:10:54.263Z,6.70
2022-11-29T09:11:49.865Z,6.72
2022-11-29T09:12:45.491Z,6.72
2022-11-29T09:13:40.562Z,6.71
2022-11-29T09:14:35.626Z,6.70
2022-11-29T09:15:30.647Z,6.70
2022-11-29T09:16:26.251Z,6.66
2022-11-29T09:17:21.574Z,6.68
2022-11-29T09:18:17.001Z,6.69
2022-11-29T09:19:12.601Z,6.71
2022-11-29T09:20:08.205Z,6.70
2022-11-29T09:21:03.656Z,6.73
2022-11-29T09:21:59.136Z,6.75
2022-11-29T09:22:54.464Z,6.76
2022-11-29T09:23:49.927Z,6.78
2022-11-29T09:24:45.685Z,6.80
2022-11-29T09:25:40.933Z,6.81
2022-11-29T09:26:36.503Z,6.81
2022-11-29T09:27:31.971Z,6.83
2022-11-29T09:28:27.597Z,6.85
2022-11-29T09:29:22.639Z,6.86
2022-11-29T09:30:22.202Z,6.87
2022-11-29T09:31:13.847Z,6.89
2022-11-29T09:32:07.924Z,6.91
2022-11-29T09:33:02.871Z,6.90
2022-11-29T09:33:57.929Z,6.89
2022-11-29T09:34:52.999Z,6.88
2022-11-29T09:35:50.474Z,6.89
2022-11-29T09:36:45.820Z,6.89
2022-11-29T09:37:41.267Z,6.91
2022-11-29T09:38:37.017Z,6.92
2022-11-29T09:39:32.345Z,6.91
2022-11-29T09:40:27.856Z,6.93
2022-11-29T09:41:23.222Z,6.93
2022-11-29T09:42:18.697Z,6.95
2022-11-29T09:43:14.148Z,7.02
2022-11-29T09:44:09.647Z,7.06
2022-11-29T09:45:05.264Z,7.18
2022-11-29T09:46:00.746Z,7.22
2022-11-29T09:46:58.725Z,7.38
2022-11-29T09:47:51.755Z,7.50
2022-11-29T09:48:47.226Z,7.61
2022-11-29T09:49:42.687Z,7.67
2022-11-29T09:50:38.135Z,7.72
2022-11-29T09:51:33.713Z,7.74
2022-11-29T09:52:29.161Z,7.68
2022-11-29T09:53:24.600Z,7.62
2022-11-29T09:54:20.199Z,7.58
2022-11-29T09:55:15.670Z,7.52
2022-11-29T09:56:11.113Z,7.55
2022-11-29T09:57:10.632Z,7.60
2022-11-29T09:58:05.387Z,7.58
2022-11-29T09:59:00.817Z,7.59
2022-11-29T09:59:56.383Z,7.64
2022-11-29T10:00:51.967Z,7.63
2022-11-29T10:01:47.299Z,7.59
2022-11-29T10:02:42.824Z,7.57
2022-11-29T10:03:38.170Z,7.54
2022-11-29T10:04:33.761Z,7.51
2022-11-29T10:05:29.251Z,7.48
2022-11-29T10:06:24.600Z,7.47
2022-11-29T10:07:19.622Z,7.45
2022-11-29T10:08:14.663Z,7.43
2022-11-29T10:09:09.748Z,7.40
2022-11-29T10:10:04.825Z,7.38
2022-11-29T10:10:59.907Z,7.37
2022-11-29T10:11:54.954Z,7.37
2022-11-29T10:12:49.977Z,7.39
2022-11-29T10:13:45.211Z,7.39
2022-11-29T10:14:40.244Z,7.38
2022-11-29T10:15:35.282Z,7.37
2022-11-29T10:16:30.433Z,7.39
2022-11-29T10:17:25.356Z,7.39
2022-11-29T10:18:20.531Z,7.37
2022-11-29T10:19:16.113Z,7.39
2022-11-29T10:20:11.536Z,7.41
2022-11-29T10:21:10.656Z,7.41
2022-11-29T10:22:05.845Z,7.41
2022-11-29T10:23:01.298Z,7.43
2022-11-29T10:23:57.003Z,7.44
2022-11-29T10:24:52.384Z,7.44
2022-11-29T10:25:47.851Z,7.47
2022-11-29T10:26:43.316Z,7.49
2022-11-29T10:27:38.755Z,7.52
2022-11-29T10:28:34.208Z,7.54
2022-11-29T10:29:29.670Z,7.57
2022-11-29T10:30:25.392Z,7.59
2022-11-29T10:31:20.784Z,7.61
2022-11-29T10:32:16.275Z,7.61
2022-11-29T10:33:11.711Z,7.61
2022-11-29T10:34:07.176Z,7.59
2022-11-29T10:35:02.663Z,7.61
2022-11-29T10:35:58.127Z,7.60
2022-11-29T10:36:53.530Z,7.58
2022-11-29T10:38:22.265Z,7.57
2022-11-29T10:40:14.080Z,7.13
2022-11-29T10:41:07.647Z,7.37
2022-11-29T10:42:02.949Z,7.45
2022-11-29T10:42:58.492Z,7.48
2022-11-29T10:43:53.915Z,7.51
2022-11-29T10:44:49.362Z,7.52
2022-11-29T10:45:44.877Z,7.54
2022-11-29T10:46:40.221Z,7.55
2022-11-29T10:47:35.679Z,7.56
2022-11-29T10:48:31.091Z,7.59
2022-11-29T10:49:26.537Z,7.62
2022-11-29T10:50:22.112Z,7.66
2022-11-29T10:51:17.417Z,7.69
2022-11-29T10:52:12.839Z,7.70
2022-11-29T10:53:08.329Z,7.71
2022-11-29T10:54:03.598Z,7.73
2022-11-29T10:54:59.070Z,7.74
2022-11-29T10:55:54.548Z,7.75
2022-11-29T10:56:50.015Z,7.75
2022-11-29T10:57:45.476Z,7.75
2022-11-29T10:58:40.968Z,7.74
2022-11-29T10:59:36.355Z,7.75
2022-11-29T11:00:31.800Z,7.76
2022-11-29T11:01:27.255Z,7.75
2022-11-29T11:02:22.735Z,7.75
2022-11-29T11:03:18.283Z,7.76
2022-11-29T11:04:13.545Z,7.75
2022-11-29T11:05:08.973Z,7.77
2022-11-29T11:06:04.438Z,7.78
2022-11-29T11:06:59.812Z,7.79
2022-11-29T11:07:55.294Z,7.79
2022-11-29T11:08:50.711Z,7.79
2022-11-29T11:09:46.381Z,7.82
2022-11-29T11:10:41.823Z,7.85
2022-11-29T11:11:37.101Z,7.89
2022-11-29T11:12:32.451Z,7.89
2022-11-29T11:13:27.871Z,7.90
2022-11-29T11:14:23.289Z,7.90
2022-11-29T11:15:18.771Z,7.89
2022-11-29T11:16:14.199Z,7.87
2022-11-29T11:17:09.531Z,7.86
2022-11-29T11:18:04.886Z,7.85
2022-11-29T11:19:00.341Z,7.84
2022-11-29T11:19:55.705Z,7.85
2022-11-29T11:20:51.108Z,7.84
2022-11-29T11:21:46.504Z,7.84
2022-11-29T11:22:41.866Z,7.85
2022-11-29T11:23:42.404Z,7.86
2022-11-29T11:24:33.694Z,7.95
2022-11-29T11:25:28.190Z,8.07
2022-11-29T11:26:23.775Z,8.16
2022-11-29T11:27:19.228Z,8.18
2022-11-29T11:28:14.618Z,8.13
2022-11-29T11:29:10.147Z,8.11
2022-11-29T11:30:05.474Z,8.06
2022-11-29T11:31:00.925Z,8.02
2022-11-29T11:31:56.423Z,7.98
2022-11-29T11:32:51.821Z,7.95
2022-11-29T11:33:47.276Z,7.92
2022-11-29T11:34:43.032Z,7.90
2022-11-29T11:35:38.354Z,7.89
2022-11-29T11:36:33.787Z,7.86
2022-11-29T11:37:29.257Z,7.84
2022-11-29T11:38:24.850Z,7.82
2022-11-29T11:39:20.290Z,7.80
2022-11-29T11:40:15.810Z,7.79
2022-11-29T11:41:11.228Z,7.78
2022-11-29T11:42:06.561Z,7.76
2022-11-29T11:43:01.970Z,7.77
2022-11-29T11:43:57.325Z,7.78
2022-11-29T11:44:52.828Z,7.79
2022-11-29T11:45:48.114Z,7.82
2022-11-29T11:46:43.544Z,7.83
2022-11-29T11:47:38.906Z,7.82
2022-11-29T11:48:34.306Z,7.81
2022-11-29T11:49:29.690Z,7.83
2022-11-29T11:50:25.114Z,7.85
2022-11-29T11:51:20.617Z,7.86
2022-11-29T11:52:15.913Z,7.86
2022-11-29T11:53:11.333Z,7.86
2022-11-29T11:54:06.782Z,7.88
2022-11-29T11:55:02.366Z,7.89
2022-11-29T11:55:57.684Z,7.87
2022-11-29T11:56:53.075Z,7.88
2022-11-29T11:57:48.549Z,7.87
2022-11-29T11:58:43.969Z,7.88
2022-11-29T11:59:39.343Z,7.89
2022-11-29T12:01:02.303Z,7.90
2022-11-29T12:01:31.161Z,7.90
2022-11-29T12:02:25.593Z,7.90
2022-11-29T12:03:20.936Z,7.89
2022-11-29T12:04:16.388Z,7.87
2022-11-29T12:05:11.670Z,7.89
2022-11-29T12:08:05.598Z,7.54
2022-11-29T12:08:29.044Z,7.74
2022-11-29T12:09:23.475Z,7.83
2022-11-29T12:10:18.878Z,7.88
2022-11-29T12:11:14.277Z,7.93
2022-11-29T12:12:09.646Z,7.98
2022-11-29T12:13:05.054Z,8.03
2022-11-29T12:14:00.441Z,8.07
2022-11-29T12:14:55.875Z,8.10
2022-11-29T12:15:51.480Z,8.12
2022-11-29T12:16:46.781Z,8.13
2022-11-29T12:17:42.325Z,8.15
2022-11-29T12:18:37.776Z,8.14
2022-11-29T12:19:33.235Z,8.15
2022-11-29T12:20:28.769Z,8.15